»·PEaware :: AAL211 KPSP-KSFO

AAL211 :: KPSP-KSFO

FLIGHT INFORMATION

Flight Status: Arrived
Operator:
American Airlines
More flights by this operator :: More flights under this callsign
Pilot: Robert McDonald (1649)
Aircraft: BOEING 737-800
(B738)
More flights by this aircraft type
Origin: KPSP Palm Springs Intl
United States
Destination: KSFO San Francisco Intl
United States
More flights between these airports :: More routes between these airports
Route: +CATH1 PSP V386 PMD AVE MAKRS SERFR SERFR SERFR2
File this flight plan on PilotEdge
Remarks:
Altitude:
(Current/Filed)
38,000ft
Speed:
(Current/Filed)
450kts
Departed: 07-Jun-17 07:34 PM
Arrived: 07-Jun-17 08:40 PM
Distance/Time
Traveled:
365nm/1:06
Distance/Time
To Go:
Arrived

Flight Plot

Page will automatically refresh every two minutes.

Flight plan parsing failed; only flown route is shown


Map Options




Map Legend


Flown Route
Filed Route
Departure Airport
Arrival Airport
Navaid (VOR, NDB)
Fix

Horizontal Profiles

Position Reports

Time Latitude Longitude Heading Altitude Ground
Speed
07-Jun-17 19:29 33.823828 -116.506542 205 486ft 0kts
07-Jun-17 19:30 33.823828 -116.506542 205 486ft 0kts
07-Jun-17 19:31 33.824056 -116.506411 205 486ft 3kts
07-Jun-17 19:32 33.824381 -116.506409 148 486ft 0kts
07-Jun-17 19:33 33.824380 -116.506408 148 486ft 0kts
07-Jun-17 19:34 33.823121 -116.504189 90 486ft 6kts
07-Jun-17 19:35 33.818991 -116.500101 143 486ft 11kts
07-Jun-17 19:36 33.820681 -116.499596 321 486ft 63kts
07-Jun-17 19:37 33.858932 -116.533280 318 3158ft 209kts
07-Jun-17 19:38 33.912584 -116.531397 66 7006ft 240kts
07-Jun-17 19:39 33.892321 -116.460722 130 10597ft 237kts
07-Jun-17 19:40 33.858239 -116.392514 90 12877ft 256kts
07-Jun-17 19:41 33.913821 -116.348984 328 14636ft 310kts
07-Jun-17 19:42 33.952704 -116.445869 288 16761ft 360kts
07-Jun-17 19:43 34.002852 -116.562399 295 18678ft 416kts
07-Jun-17 19:44 34.057126 -116.688827 295 21363ft 434kts
07-Jun-17 19:45 34.112890 -116.821137 295 23666ft 451kts
07-Jun-17 19:46 34.170716 -116.958047 295 25897ft 461kts
07-Jun-17 19:47 34.229330 -117.097421 295 27785ft 470kts
07-Jun-17 19:48 34.287804 -117.236743 295 30168ft 460kts
07-Jun-17 19:49 34.345178 -117.373860 295 32226ft 454kts
07-Jun-17 19:50 34.401997 -117.509988 295 33951ft 451kts
07-Jun-17 19:51 34.458149 -117.644864 295 35408ft 447kts
07-Jun-17 19:52 34.513765 -117.778812 295 36628ft 444kts
07-Jun-17 19:53 34.568995 -117.912146 295 37666ft 441kts
07-Jun-17 19:54 34.624074 -118.045421 296 37979ft 434kts
07-Jun-17 19:55 34.687958 -118.169797 302 37986ft 437kts
07-Jun-17 19:56 34.754608 -118.292542 302 37988ft 435kts
07-Jun-17 19:57 34.820702 -118.416044 302 38021ft 433kts
07-Jun-17 19:58 34.886591 -118.539197 302 38065ft 435kts
07-Jun-17 19:59 34.952112 -118.662033 302 38076ft 432kts
07-Jun-17 20:00 35.017218 -118.784251 302 38069ft 429kts
07-Jun-17 20:01 35.082390 -118.906830 302 38033ft 428kts
07-Jun-17 20:02 35.147341 -119.029249 302 37972ft 430kts
07-Jun-17 20:03 35.212252 -119.151780 301 37907ft 428kts
07-Jun-17 20:04 35.276835 -119.273947 301 37896ft 427kts
07-Jun-17 20:05 35.341354 -119.396212 301 37900ft 424kts
07-Jun-17 20:06 35.405291 -119.517597 301 37923ft 423kts
07-Jun-17 20:07 35.469287 -119.639312 301 37898ft 425kts
07-Jun-17 20:08 35.533374 -119.761414 301 37903ft 424kts
07-Jun-17 20:09 35.597177 -119.883220 301 37913ft 423kts
07-Jun-17 20:10 35.649402 -120.011541 280 37954ft 422kts
07-Jun-17 20:11 35.664521 -120.154268 276 37987ft 422kts
07-Jun-17 20:12 35.678206 -120.297796 277 37981ft 420kts
07-Jun-17 20:13 35.716044 -120.432967 294 37991ft 422kts
07-Jun-17 20:14 35.766304 -120.563084 294 37994ft 419kts
07-Jun-17 20:15 35.815594 -120.693332 294 37993ft 421kts
07-Jun-17 20:16 35.865182 -120.824174 294 37990ft 418kts
07-Jun-17 20:17 35.913967 -120.953512 294 37694ft 412kts
07-Jun-17 20:18 35.962501 -121.082398 293 35493ft 417kts
07-Jun-17 20:19 36.011408 -121.212720 292 33255ft 421kts
07-Jun-17 20:20 36.064821 -121.342459 303 30900ft 430kts
07-Jun-17 20:21 36.158881 -121.436405 323 28572ft 443kts
07-Jun-17 20:22 36.262908 -121.516929 322 26195ft 438kts
07-Jun-17 20:23 36.365207 -121.597337 322 23836ft 431kts
07-Jun-17 20:24 36.465163 -121.675592 322 21533ft 418kts
07-Jun-17 20:25 36.560977 -121.751041 322 19529ft 399kts
07-Jun-17 20:26 36.652774 -121.823940 322 17536ft 384kts
07-Jun-17 20:27 36.742253 -121.893370 332 15593ft 375kts
07-Jun-17 20:28 36.843373 -121.923226 344 13701ft 370kts
07-Jun-17 20:29 36.942404 -121.950239 344 11845ft 360kts
07-Jun-17 20:30 37.035644 -121.985379 339 10531ft 334kts
07-Jun-17 20:31 37.119874 -122.018935 339 9615ft 305kts
07-Jun-17 20:32 37.199165 -122.049911 339 8266ft 292kts
07-Jun-17 20:33 37.274860 -122.079574 339 6999ft 279kts
07-Jun-17 20:34 37.347537 -122.107964 339 5784ft 269kts
07-Jun-17 20:35 37.417563 -122.135497 338 4815ft 251kts
07-Jun-17 20:36 37.482457 -122.159558 343 3756ft 232kts
07-Jun-17 20:37 37.536111 -122.179348 302 3004ft 178kts
07-Jun-17 20:38 37.559144 -122.233217 296 2133ft 171kts
07-Jun-17 20:39 37.580842 -122.284837 297 1292ft 162kts
07-Jun-17 20:40 37.600214 -122.330370 296 373ft 143kts
07-Jun-17 20:41 37.619008 -122.375943 301 22ft 83kts
07-Jun-17 20:42 37.618528 -122.381166 215 21ft 0kts

Navigation Log

Ident Type
Flight plan parsing failed, navigation log unavailable